Terminal Aerodrome Forecast
Issued by NWS

Current Version | Previous Version | Text Only | Print | Product List | Glossary Off
Versions: 1 2 3 4 5 6 7 8 9 10 11 12 13 14 15 16

000
FTUS44 KCRP 240830 AAA
TAFLRD
TAF AMD
KLRD 240830Z 2408/2506 13017G24KT P6SM BKN250
     FM241100 15008KT P6SM BKN018 OVC200
     FM241600 24008KT P6SM SCT030 SCT200
     FM241700 32012KT P6SM FEW040
     FM250200 12006KT P6SM SKC=

USA.gov is the U.S. government's official web portal to all federal, state and local government web resources and services.